Map Display - EGKK to LSZH
(last flight recorded 21-01-2019, 20:58 - Geoff Price)

Aircraft Weights    Units : Maximums
Passengers :   124  
Cargo : kg 3,800 kg
Suggested Fuel Load : kg 15,682 kg
 
     
 
Dry Operating : 27,448 kg    
Total Payload : 0 kg 15,643 kg
 
Take Off : 34,667 kg 58,105 kg
 
Expected Landing : 30,801 kg 46,720 kg

Christopher Manlow,  B73Q ,  G-BKYE,  .

Route Distance Previous
Flights
Average
Duration
Average
Fuel Flow
Average
Fuel Use
EGKK - Gatwick, London
LSZH - Zurich, Switzerland
407 nm 8 01:24 2,794 kg/h 3,866 kg

Current weather :-
2019/01/22 06:09
TAF EGKK 220500Z 2206/2312 27009KT 9999 FEW020
TEMPO 2214/2218 6000 -SHRA BKN010 PROB30
TEMPO 2214/2218 3000 SHRA -SHRASN BKN005 PROB30
TEMPO 2218/2220 2000 -SHSN BKN005 PROB30
TEMPO 2302/2309 8000 BKN009
BECMG 2305/2308 33010KT
2019/01/22 09:33
TAF LSZH 220825Z 2209/2315 VRB03KT 4500 BR OVC013 TXM00/2214Z TNM05/2306Z TX00/2314Z
BECMG 2209/2212 8000 BKN015
BECMG 2218/2221 4000 BR PROB40 2221/2309 2500 BR BKN010
BECMG 2309/2312 7000

Back to Virtual Airline